sensor_id;sensor_type;location;lat;lon;timestamp;P1;durP1;ratioP1;P2;durP2;ratioP2
9445;SDS011;4761;49.490;10.908;2022-11-14T00:01:58;14.17;;;11.67;;
9445;SDS011;4761;49.490;10.908;2022-11-14T00:04:23;11.73;;;10.53;;
9445;SDS011;4761;49.490;10.908;2022-11-14T00:06:49;12.27;;;10.93;;
9445;SDS011;4761;49.490;10.908;2022-11-14T00:09:14;11.97;;;10.77;;
9445;SDS011;4761;49.490;10.908;2022-11-14T00:11:40;13.83;;;12.17;;
9445;SDS011;4761;49.490;10.908;2022-11-14T00:14:05;12.43;;;11.13;;
9445;SDS011;4761;49.490;10.908;2022-11-14T00:16:31;12.90;;;11.60;;
9445;SDS011;4761;49.490;10.908;2022-11-14T00:18:56;14.93;;;11.73;;
9445;SDS011;4761;49.490;10.908;2022-11-14T00:21:22;12.30;;;11.00;;
9445;SDS011;4761;49.490;10.908;2022-11-14T00:23:47;11.50;;;10.30;;
9445;SDS011;4761;49.490;10.908;2022-11-14T00:26:13;12.10;;;10.83;;
9445;SDS011;4761;49.490;10.908;2022-11-14T00:28:38;12.20;;;10.87;;
9445;SDS011;4761;49.490;10.908;2022-11-14T00:31:04;12.40;;;10.50;;
9445;SDS011;4761;49.490;10.908;2022-11-14T00:33:30;11.63;;;10.43;;
9445;SDS011;4761;49.490;10.908;2022-11-14T00:35:55;11.60;;;10.40;;
9445;SDS011;4761;49.490;10.908;2022-11-14T00:38:21;13.07;;;10.50;;
9445;SDS011;4761;49.490;10.908;2022-11-14T00:40:47;11.50;;;10.20;;
9445;SDS011;4761;49.490;10.908;2022-11-14T00:43:13;11.83;;;10.17;;
9445;SDS011;4761;49.490;10.908;2022-11-14T00:45:38;11.83;;;10.43;;
9445;SDS011;4761;49.490;10.908;2022-11-14T00:48:06;12.00;;;10.67;;
9445;SDS011;4761;49.490;10.908;2022-11-14T00:50:32;12.37;;;11.07;;
9445;SDS011;4761;49.490;10.908;2022-11-14T00:52:58;11.33;;;10.20;;
9445;SDS011;4761;49.490;10.908;2022-11-14T00:55:24;10.97;;;9.90;;
9445;SDS011;4761;49.490;10.908;2022-11-14T00:57:49;12.10;;;10.53;;
9445;SDS011;4761;49.490;10.908;2022-11-14T01:00:15;11.20;;;10.10;;
9445;SDS011;4761;49.490;10.908;2022-11-14T01:02:40;11.63;;;10.43;;
9445;SDS011;4761;49.490;10.908;2022-11-14T01:05:06;11.07;;;9.97;;
9445;SDS011;4761;49.490;10.908;2022-11-14T01:07:31;12.43;;;10.90;;
9445;SDS011;4761;49.490;10.908;2022-11-14T01:09:57;11.37;;;10.17;;
9445;SDS011;4761;49.490;10.908;2022-11-14T01:12:22;11.67;;;10.53;;
9445;SDS011;4761;49.490;10.908;2022-11-14T01:14:48;11.00;;;9.90;;
9445;SDS011;4761;49.490;10.908;2022-11-14T01:17:13;10.90;;;9.80;;
9445;SDS011;4761;49.490;10.908;2022-11-14T01:19:39;10.87;;;9.77;;
9445;SDS011;4761;49.490;10.908;2022-11-14T01:22:05;11.13;;;9.93;;
9445;SDS011;4761;49.490;10.908;2022-11-14T01:24:31;12.03;;;10.07;;
9445;SDS011;4761;49.490;10.908;2022-11-14T01:26:57;10.87;;;9.77;;
9445;SDS011;4761;49.490;10.908;2022-11-14T01:29:23;11.53;;;10.33;;
9445;SDS011;4761;49.490;10.908;2022-11-14T01:31:49;11.50;;;10.40;;
9445;SDS011;4761;49.490;10.908;2022-11-14T01:34:14;11.07;;;9.97;;
9445;SDS011;4761;49.490;10.908;2022-11-14T01:36:40;10.53;;;9.53;;
9445;SDS011;4761;49.490;10.908;2022-11-14T01:39:05;10.47;;;9.43;;
9445;SDS011;4761;49.490;10.908;2022-11-14T01:41:31;11.33;;;9.33;;
9445;SDS011;4761;49.490;10.908;2022-11-14T01:43:56;10.53;;;9.17;;
9445;SDS011;4761;49.490;10.908;2022-11-14T01:46:22;11.00;;;9.83;;
9445;SDS011;4761;49.490;10.908;2022-11-14T01:49:05;9.53;;;8.63;;
9445;SDS011;4761;49.490;10.908;2022-11-14T01:51:43;10.17;;;9.13;;
9445;SDS011;4761;49.490;10.908;2022-11-14T01:54:14;9.93;;;8.93;;
9445;SDS011;4761;49.490;10.908;2022-11-14T01:57:02;10.30;;;9.30;;
9445;SDS011;4761;49.490;10.908;2022-11-14T01:59:48;10.30;;;9.20;;
9445;SDS011;4761;49.490;10.908;2022-11-14T02:02:17;10.40;;;9.07;;
9445;SDS011;4761;49.490;10.908;2022-11-14T02:04:55;10.63;;;9.53;;
9445;SDS011;4761;49.490;10.908;2022-11-14T02:07:26;9.87;;;8.87;;
9445;SDS011;4761;49.490;10.908;2022-11-14T02:09:53;9.33;;;8.43;;
9445;SDS011;4761;49.490;10.908;2022-11-14T02:12:20;10.10;;;9.10;;
9445;SDS011;4761;49.490;10.908;2022-11-14T02:14:48;10.17;;;9.17;;
9445;SDS011;4761;49.490;10.908;2022-11-14T02:17:16;10.23;;;9.07;;
9445;SDS011;4761;49.490;10.908;2022-11-14T02:20:25;10.20;;;9.20;;
9445;SDS011;4761;49.490;10.908;2022-11-14T02:22:35;9.93;;;8.93;;
9445;SDS011;4761;49.490;10.908;2022-11-14T02:25:02;10.83;;;9.60;;
9445;SDS011;4761;49.490;10.908;2022-11-14T02:27:28;9.77;;;8.77;;
9445;SDS011;4761;49.490;10.908;2022-11-14T02:30:01;9.93;;;8.67;;
9445;SDS011;4761;49.490;10.908;2022-11-14T02:32:47;9.67;;;8.70;;
9445;SDS011;4761;49.490;10.908;2022-11-14T02:35:12;9.97;;;8.60;;
9445;SDS011;4761;49.490;10.908;2022-11-14T02:37:38;9.50;;;8.50;;
9445;SDS011;4761;49.490;10.908;2022-11-14T02:40:04;9.43;;;8.43;;
9445;SDS011;4761;49.490;10.908;2022-11-14T02:42:30;9.27;;;8.33;;
9445;SDS011;4761;49.490;10.908;2022-11-14T02:44:55;9.60;;;8.60;;
9445;SDS011;4761;49.490;10.908;2022-11-14T02:47:21;9.83;;;8.83;;
9445;SDS011;4761;49.490;10.908;2022-11-14T02:49:49;9.57;;;8.67;;
9445;SDS011;4761;49.490;10.908;2022-11-14T02:52:14;9.57;;;8.50;;
9445;SDS011;4761;49.490;10.908;2022-11-14T02:54:40;10.10;;;9.07;;
9445;SDS011;4761;49.490;10.908;2022-11-14T02:57:06;10.50;;;9.40;;
9445;SDS011;4761;49.490;10.908;2022-11-14T02:59:31;9.63;;;8.70;;
9445;SDS011;4761;49.490;10.908;2022-11-14T03:01:57;9.70;;;8.70;;
9445;SDS011;4761;49.490;10.908;2022-11-14T03:04:22;9.57;;;8.63;;
9445;SDS011;4761;49.490;10.908;2022-11-14T03:06:48;9.60;;;8.60;;
9445;SDS011;4761;49.490;10.908;2022-11-14T03:09:13;10.13;;;7.93;;
9445;SDS011;4761;49.490;10.908;2022-11-14T03:11:39;8.97;;;8.07;;
9445;SDS011;4761;49.490;10.908;2022-11-14T03:14:04;9.30;;;8.17;;
9445;SDS011;4761;49.490;10.908;2022-11-14T03:16:30;8.73;;;7.90;;
9445;SDS011;4761;49.490;10.908;2022-11-14T03:18:55;8.63;;;7.60;;
9445;SDS011;4761;49.490;10.908;2022-11-14T03:21:21;8.80;;;7.90;;
9445;SDS011;4761;49.490;10.908;2022-11-14T03:23:47;9.73;;;8.77;;
9445;SDS011;4761;49.490;10.908;2022-11-14T03:26:13;9.70;;;8.63;;
9445;SDS011;4761;49.490;10.908;2022-11-14T03:28:39;11.07;;;8.87;;
9445;SDS011;4761;49.490;10.908;2022-11-14T03:31:06;9.67;;;8.77;;
9445;SDS011;4761;49.490;10.908;2022-11-14T03:33:34;10.37;;;9.37;;
9445;SDS011;4761;49.490;10.908;2022-11-14T03:36:00;9.93;;;8.93;;
9445;SDS011;4761;49.490;10.908;2022-11-14T03:38:26;9.97;;;8.97;;
9445;SDS011;4761;49.490;10.908;2022-11-14T03:40:51;10.90;;;9.80;;
9445;SDS011;4761;49.490;10.908;2022-11-14T03:43:17;11.03;;;9.70;;
9445;SDS011;4761;49.490;10.908;2022-11-14T03:45:45;14.20;;;10.63;;
9445;SDS011;4761;49.490;10.908;2022-11-14T03:48:11;13.93;;;10.43;;
9445;SDS011;4761;49.490;10.908;2022-11-14T03:50:37;12.40;;;9.43;;
9445;SDS011;4761;49.490;10.908;2022-11-14T03:53:03;11.03;;;9.70;;
9445;SDS011;4761;49.490;10.908;2022-11-14T03:55:28;10.90;;;9.63;;
9445;SDS011;4761;49.490;10.908;2022-11-14T03:57:54;13.30;;;10.07;;
9445;SDS011;4761;49.490;10.908;2022-11-14T04:00:19;10.70;;;9.60;;
9445;SDS011;4761;49.490;10.908;2022-11-14T04:02:45;11.50;;;9.90;;
9445;SDS011;4761;49.490;10.908;2022-11-14T04:05:11;12.03;;;10.50;;
9445;SDS011;4761;49.490;10.908;2022-11-14T04:07:37;12.17;;;9.70;;
9445;SDS011;4761;49.490;10.908;2022-11-14T04:10:03;11.30;;;9.50;;
9445;SDS011;4761;49.490;10.908;2022-11-14T04:12:29;10.80;;;9.70;;
9445;SDS011;4761;49.490;10.908;2022-11-14T04:14:54;10.97;;;9.83;;
9445;SDS011;4761;49.490;10.908;2022-11-14T04:17:20;10.23;;;9.23;;
9445;SDS011;4761;49.490;10.908;2022-11-14T04:19:46;10.40;;;9.30;;
9445;SDS011;4761;49.490;10.908;2022-11-14T04:22:11;10.27;;;9.23;;
9445;SDS011;4761;49.490;10.908;2022-11-14T04:24:37;10.23;;;9.23;;
9445;SDS011;4761;49.490;10.908;2022-11-14T04:27:02;10.00;;;9.00;;
9445;SDS011;4761;49.490;10.908;2022-11-14T04:29:28;10.70;;;9.57;;
9445;SDS011;4761;49.490;10.908;2022-11-14T04:31:53;10.40;;;9.30;;
9445;SDS011;4761;49.490;10.908;2022-11-14T04:34:18;10.53;;;9.43;;
9445;SDS011;4761;49.490;10.908;2022-11-14T04:36:44;10.80;;;9.70;;
9445;SDS011;4761;49.490;10.908;2022-11-14T04:39:10;10.60;;;9.50;;
9445;SDS011;4761;49.490;10.908;2022-11-14T04:41:35;9.80;;;8.80;;
9445;SDS011;4761;49.490;10.908;2022-11-14T04:44:01;10.07;;;9.07;;
9445;SDS011;4761;49.490;10.908;2022-11-14T04:46:26;10.20;;;9.20;;
9445;SDS011;4761;49.490;10.908;2022-11-14T04:48:52;10.37;;;9.30;;
9445;SDS011;4761;49.490;10.908;2022-11-14T04:51:17;11.07;;;9.43;;
9445;SDS011;4761;49.490;10.908;2022-11-14T04:53:43;10.30;;;9.30;;
9445;SDS011;4761;49.490;10.908;2022-11-14T04:56:08;9.63;;;8.73;;
9445;SDS011;4761;49.490;10.908;2022-11-14T04:58:34;9.53;;;8.60;;
9445;SDS011;4761;49.490;10.908;2022-11-14T05:01:05;9.13;;;8.27;;
9445;SDS011;4761;49.490;10.908;2022-11-14T05:03:31;9.57;;;8.57;;
9445;SDS011;4761;49.490;10.908;2022-11-14T05:06:00;9.37;;;8.47;;
9445;SDS011;4761;49.490;10.908;2022-11-14T05:08:26;9.33;;;8.43;;
9445;SDS011;4761;49.490;10.908;2022-11-14T05:10:52;9.30;;;8.20;;
9445;SDS011;4761;49.490;10.908;2022-11-14T05:13:17;10.47;;;8.50;;
9445;SDS011;4761;49.490;10.908;2022-11-14T05:15:43;9.53;;;8.57;;
9445;SDS011;4761;49.490;10.908;2022-11-14T05:18:09;8.50;;;7.70;;
9445;SDS011;4761;49.490;10.908;2022-11-14T05:20:34;9.57;;;8.60;;
9445;SDS011;4761;49.490;10.908;2022-11-14T05:23:00;8.67;;;7.77;;
9445;SDS011;4761;49.490;10.908;2022-11-14T05:25:25;8.90;;;8.00;;
9445;SDS011;4761;49.490;10.908;2022-11-14T05:27:51;8.67;;;7.77;;
9445;SDS011;4761;49.490;10.908;2022-11-14T05:30:16;9.77;;;8.27;;
9445;SDS011;4761;49.490;10.908;2022-11-14T05:32:42;8.83;;;7.93;;
9445;SDS011;4761;49.490;10.908;2022-11-14T05:35:08;8.83;;;7.63;;
9445;SDS011;4761;49.490;10.908;2022-11-14T05:37:34;8.87;;;8.00;;
9445;SDS011;4761;49.490;10.908;2022-11-14T05:39:59;8.70;;;7.80;;
9445;SDS011;4761;49.490;10.908;2022-11-14T05:42:28;9.87;;;8.03;;
9445;SDS011;4761;49.490;10.908;2022-11-14T05:44:53;8.90;;;8.00;;
9445;SDS011;4761;49.490;10.908;2022-11-14T05:47:19;8.93;;;8.10;;
9445;SDS011;4761;49.490;10.908;2022-11-14T05:49:44;9.23;;;8.13;;
9445;SDS011;4761;49.490;10.908;2022-11-14T05:52:10;9.73;;;8.80;;
9445;SDS011;4761;49.490;10.908;2022-11-14T05:54:35;10.33;;;9.33;;
9445;SDS011;4761;49.490;10.908;2022-11-14T05:57:01;10.43;;;9.43;;
9445;SDS011;4761;49.490;10.908;2022-11-14T05:59:27;9.90;;;8.90;;
9445;SDS011;4761;49.490;10.908;2022-11-14T06:01:53;9.40;;;8.50;;
9445;SDS011;4761;49.490;10.908;2022-11-14T06:04:18;10.07;;;8.80;;
9445;SDS011;4761;49.490;10.908;2022-11-14T06:06:44;9.60;;;8.60;;
9445;SDS011;4761;49.490;10.908;2022-11-14T06:09:09;9.20;;;8.40;;
9445;SDS011;4761;49.490;10.908;2022-11-14T06:11:35;9.47;;;8.47;;
9445;SDS011;4761;49.490;10.908;2022-11-14T06:14:01;9.77;;;8.77;;
9445;SDS011;4761;49.490;10.908;2022-11-14T06:16:26;9.57;;;8.57;;
9445;SDS011;4761;49.490;10.908;2022-11-14T06:18:52;9.27;;;8.37;;
9445;SDS011;4761;49.490;10.908;2022-11-14T06:21:19;9.70;;;8.47;;
9445;SDS011;4761;49.490;10.908;2022-11-14T06:23:46;9.57;;;8.57;;
9445;SDS011;4761;49.490;10.908;2022-11-14T06:26:22;9.90;;;8.90;;
9445;SDS011;4761;49.490;10.908;2022-11-14T06:28:55;9.77;;;8.77;;
9445;SDS011;4761;49.490;10.908;2022-11-14T06:31:21;10.00;;;9.00;;
9445;SDS011;4761;49.490;10.908;2022-11-14T06:33:47;10.60;;;9.50;;
9445;SDS011;4761;49.490;10.908;2022-11-14T06:36:13;11.83;;;10.63;;
9445;SDS011;4761;49.490;10.908;2022-11-14T06:38:39;10.97;;;9.87;;
9445;SDS011;4761;49.490;10.908;2022-11-14T06:41:10;10.70;;;9.60;;
9445;SDS011;4761;49.490;10.908;2022-11-14T06:43:40;11.00;;;9.90;;
9445;SDS011;4761;49.490;10.908;2022-11-14T06:46:08;9.97;;;8.97;;
9445;SDS011;4761;49.490;10.908;2022-11-14T06:48:36;10.17;;;9.13;;
9445;SDS011;4761;49.490;10.908;2022-11-14T06:51:02;10.30;;;9.30;;
9445;SDS011;4761;49.490;10.908;2022-11-14T06:53:30;10.33;;;9.27;;
9445;SDS011;4761;49.490;10.908;2022-11-14T06:55:57;9.97;;;9.07;;
9445;SDS011;4761;49.490;10.908;2022-11-14T06:58:25;9.70;;;8.73;;
9445;SDS011;4761;49.490;10.908;2022-11-14T07:00:54;9.50;;;8.53;;
9445;SDS011;4761;49.490;10.908;2022-11-14T07:03:20;10.53;;;9.40;;
9445;SDS011;4761;49.490;10.908;2022-11-14T07:05:45;10.30;;;9.00;;
9445;SDS011;4761;49.490;10.908;2022-11-14T07:08:11;9.47;;;8.53;;
9445;SDS011;4761;49.490;10.908;2022-11-14T07:10:37;9.50;;;8.60;;
9445;SDS011;4761;49.490;10.908;2022-11-14T07:13:03;9.53;;;8.53;;
9445;SDS011;4761;49.490;10.908;2022-11-14T07:15:28;9.57;;;8.67;;
9445;SDS011;4761;49.490;10.908;2022-11-14T07:17:54;9.47;;;8.50;;
9445;SDS011;4761;49.490;10.908;2022-11-14T07:20:19;10.40;;;9.40;;
9445;SDS011;4761;49.490;10.908;2022-11-14T07:22:45;8.90;;;8.00;;
9445;SDS011;4761;49.490;10.908;2022-11-14T07:25:11;8.63;;;7.80;;
9445;SDS011;4761;49.490;10.908;2022-11-14T07:27:37;9.03;;;8.13;;
9445;SDS011;4761;49.490;10.908;2022-11-14T07:30:03;9.87;;;8.87;;
9445;SDS011;4761;49.490;10.908;2022-11-14T07:32:28;10.13;;;9.13;;
9445;SDS011;4761;49.490;10.908;2022-11-14T07:34:54;10.20;;;9.20;;
9445;SDS011;4761;49.490;10.908;2022-11-14T07:37:19;10.03;;;9.00;;
9445;SDS011;4761;49.490;10.908;2022-11-14T07:39:45;11.33;;;9.50;;
9445;SDS011;4761;49.490;10.908;2022-11-14T07:42:10;10.40;;;8.90;;
9445;SDS011;4761;49.490;10.908;2022-11-14T07:44:36;9.27;;;8.30;;
9445;SDS011;4761;49.490;10.908;2022-11-14T07:47:02;9.10;;;8.20;;
9445;SDS011;4761;49.490;10.908;2022-11-14T07:49:27;8.87;;;8.00;;
9445;SDS011;4761;49.490;10.908;2022-11-14T07:51:53;8.77;;;7.87;;
9445;SDS011;4761;49.490;10.908;2022-11-14T07:54:18;8.13;;;7.43;;
9445;SDS011;4761;49.490;10.908;2022-11-14T07:56:44;8.43;;;7.63;;
9445;SDS011;4761;49.490;10.908;2022-11-14T07:59:09;7.93;;;7.23;;
9445;SDS011;4761;49.490;10.908;2022-11-14T08:01:35;7.40;;;6.70;;
9445;SDS011;4761;49.490;10.908;2022-11-14T08:04:00;7.37;;;6.67;;
9445;SDS011;4761;49.490;10.908;2022-11-14T08:06:26;7.30;;;6.60;;
9445;SDS011;4761;49.490;10.908;2022-11-14T08:08:52;7.37;;;6.77;;
9445;SDS011;4761;49.490;10.908;2022-11-14T08:11:18;6.87;;;6.27;;
9445;SDS011;4761;49.490;10.908;2022-11-14T08:14:03;6.83;;;6.20;;
9445;SDS011;4761;49.490;10.908;2022-11-14T08:16:29;7.33;;;6.63;;
9445;SDS011;4761;49.490;10.908;2022-11-14T08:18:54;6.80;;;6.20;;
9445;SDS011;4761;49.490;10.908;2022-11-14T08:21:20;6.70;;;6.10;;
9445;SDS011;4761;49.490;10.908;2022-11-14T08:23:45;7.00;;;6.40;;
9445;SDS011;4761;49.490;10.908;2022-11-14T08:26:11;6.50;;;5.90;;
9445;SDS011;4761;49.490;10.908;2022-11-14T08:28:36;5.70;;;5.20;;
9445;SDS011;4761;49.490;10.908;2022-11-14T08:31:02;6.57;;;5.97;;
9445;SDS011;4761;49.490;10.908;2022-11-14T08:33:28;5.90;;;5.40;;
9445;SDS011;4761;49.490;10.908;2022-11-14T08:35:55;6.00;;;5.50;;
9445;SDS011;4761;49.490;10.908;2022-11-14T08:38:24;5.83;;;5.13;;
9445;SDS011;4761;49.490;10.908;2022-11-14T08:40:49;5.90;;;5.40;;
9445;SDS011;4761;49.490;10.908;2022-11-14T08:43:15;5.90;;;5.40;;
9445;SDS011;4761;49.490;10.908;2022-11-14T08:45:40;5.30;;;4.90;;
9445;SDS011;4761;49.490;10.908;2022-11-14T08:48:06;5.70;;;5.20;;
9445;SDS011;4761;49.490;10.908;2022-11-14T08:50:31;5.83;;;5.33;;
9445;SDS011;4761;49.490;10.908;2022-11-14T08:52:57;6.00;;;5.50;;
9445;SDS011;4761;49.490;10.908;2022-11-14T08:55:22;6.10;;;5.50;;
9445;SDS011;4761;49.490;10.908;2022-11-14T08:57:48;5.90;;;5.40;;
9445;SDS011;4761;49.490;10.908;2022-11-14T09:00:17;6.00;;;5.50;;
9445;SDS011;4761;49.490;10.908;2022-11-14T09:02:42;5.33;;;4.90;;
9445;SDS011;4761;49.490;10.908;2022-11-14T09:05:08;5.80;;;5.30;;
9445;SDS011;4761;49.490;10.908;2022-11-14T09:07:34;5.17;;;4.67;;
9445;SDS011;4761;49.490;10.908;2022-11-14T09:09:59;5.23;;;4.83;;
9445;SDS011;4761;49.490;10.908;2022-11-14T09:12:25;5.60;;;5.10;;
9445;SDS011;4761;49.490;10.908;2022-11-14T09:14:50;5.43;;;4.90;;
9445;SDS011;4761;49.490;10.908;2022-11-14T09:17:16;5.47;;;4.97;;
9445;SDS011;4761;49.490;10.908;2022-11-14T09:19:41;5.37;;;4.90;;
9445;SDS011;4761;49.490;10.908;2022-11-14T09:22:07;5.33;;;4.83;;
9445;SDS011;4761;49.490;10.908;2022-11-14T09:24:32;5.80;;;5.20;;
9445;SDS011;4761;49.490;10.908;2022-11-14T09:26:58;6.70;;;6.10;;
9445;SDS011;4761;49.490;10.908;2022-11-14T09:29:23;6.33;;;5.73;;
9445;SDS011;4761;49.490;10.908;2022-11-14T09:31:50;6.20;;;5.60;;
9445;SDS011;4761;49.490;10.908;2022-11-14T09:34:16;5.23;;;4.70;;
9445;SDS011;4761;49.490;10.908;2022-11-14T09:36:42;17.47;;;5.47;;
9445;SDS011;4761;49.490;10.908;2022-11-14T09:39:07;10.53;;;5.77;;
9445;SDS011;4761;49.490;10.908;2022-11-14T09:44:31;6.07;;;5.37;;
9445;SDS011;4761;49.490;10.908;2022-11-14T09:47:21;6.43;;;5.00;;
9445;SDS011;4761;49.490;10.908;2022-11-14T09:49:52;5.57;;;4.50;;
9445;SDS011;4761;49.490;10.908;2022-11-14T09:52:26;5.30;;;4.80;;
9445;SDS011;4761;49.490;10.908;2022-11-14T09:55:24;5.40;;;4.67;;
9445;SDS011;4761;49.490;10.908;2022-11-14T09:57:53;5.83;;;4.63;;
9445;SDS011;4761;49.490;10.908;2022-11-14T10:00:20;4.83;;;4.43;;
9445;SDS011;4761;49.490;10.908;2022-11-14T10:03:09;5.10;;;4.60;;
9445;SDS011;4761;49.490;10.908;2022-11-14T10:11:09;4.57;;;4.17;;
9445;SDS011;4761;49.490;10.908;2022-11-14T10:13:54;4.60;;;4.20;;
9445;SDS011;4761;49.490;10.908;2022-11-14T10:16:24;5.03;;;4.27;;
9445;SDS011;4761;49.490;10.908;2022-11-14T10:24:44;4.50;;;4.10;;
9445;SDS011;4761;49.490;10.908;2022-11-14T10:27:16;5.27;;;4.50;;
9445;SDS011;4761;49.490;10.908;2022-11-14T10:35:20;4.47;;;4.07;;
9445;SDS011;4761;49.490;10.908;2022-11-14T10:40:40;6.30;;;4.30;;
9445;SDS011;4761;49.490;10.908;2022-11-14T10:43:27;4.60;;;4.00;;
9445;SDS011;4761;49.490;10.908;2022-11-14T10:48:38;4.30;;;3.90;;
9445;SDS011;4761;49.490;10.908;2022-11-14T10:51:17;4.73;;;4.33;;
9445;SDS011;4761;49.490;10.908;2022-11-14T10:53:52;4.40;;;4.00;;
9445;SDS011;4761;49.490;10.908;2022-11-14T10:56:34;4.60;;;3.97;;
9445;SDS011;4761;49.490;10.908;2022-11-14T10:58:59;5.07;;;4.00;;
9445;SDS011;4761;49.490;10.908;2022-11-14T11:04:24;4.83;;;4.33;;
9445;SDS011;4761;49.490;10.908;2022-11-14T11:09:36;4.60;;;4.20;;
9445;SDS011;4761;49.490;10.908;2022-11-14T11:12:44;4.80;;;4.23;;
9445;SDS011;4761;49.490;10.908;2022-11-14T11:15:27;4.63;;;4.23;;
9445;SDS011;4761;49.490;10.908;2022-11-14T11:17:56;4.77;;;4.30;;
9445;SDS011;4761;49.490;10.908;2022-11-14T11:23:04;4.37;;;3.97;;
9445;SDS011;4761;49.490;10.908;2022-11-14T11:25:39;4.80;;;4.33;;
9445;SDS011;4761;49.490;10.908;2022-11-14T11:28:15;5.20;;;4.70;;
9445;SDS011;4761;49.490;10.908;2022-11-14T11:31:02;5.50;;;4.47;;
9445;SDS011;4761;49.490;10.908;2022-11-14T11:33:36;4.80;;;4.40;;
9445;SDS011;4761;49.490;10.908;2022-11-14T11:36:04;4.80;;;4.30;;
9445;SDS011;4761;49.490;10.908;2022-11-14T11:38:41;5.20;;;4.70;;
9445;SDS011;4761;49.490;10.908;2022-11-14T11:44:04;5.07;;;4.13;;
9445;SDS011;4761;49.490;10.908;2022-11-14T11:49:22;4.33;;;3.93;;
9445;SDS011;4761;49.490;10.908;2022-11-14T11:51:54;4.57;;;4.13;;
9445;SDS011;4761;49.490;10.908;2022-11-14T11:57:22;5.70;;;4.70;;
9445;SDS011;4761;49.490;10.908;2022-11-14T11:59:54;5.23;;;4.60;;
9445;SDS011;4761;49.490;10.908;2022-11-14T12:02:29;7.23;;;4.67;;
9445;SDS011;4761;49.490;10.908;2022-11-14T12:04:55;6.33;;;4.50;;
9445;SDS011;4761;49.490;10.908;2022-11-14T12:07:24;5.00;;;4.40;;
9445;SDS011;4761;49.490;10.908;2022-11-14T12:10:04;4.47;;;4.07;;
9445;SDS011;4761;49.490;10.908;2022-11-14T12:31:39;5.33;;;4.83;;
9445;SDS011;4761;49.490;10.908;2022-11-14T12:34:11;5.57;;;4.90;;
9445;SDS011;4761;49.490;10.908;2022-11-14T12:36:38;5.57;;;4.90;;
9445;SDS011;4761;49.490;10.908;2022-11-14T12:39:18;5.07;;;4.50;;
9445;SDS011;4761;49.490;10.908;2022-11-14T12:41:48;4.53;;;4.10;;
9445;SDS011;4761;49.490;10.908;2022-11-14T12:44:18;4.10;;;3.73;;
9445;SDS011;4761;49.490;10.908;2022-11-14T13:00:26;9.20;;;4.03;;
9445;SDS011;4761;49.490;10.908;2022-11-14T13:03:08;8.00;;;4.10;;
9445;SDS011;4761;49.490;10.908;2022-11-14T13:06:03;4.83;;;3.70;;
9445;SDS011;4761;49.490;10.908;2022-11-14T13:14:26;4.27;;;3.43;;
9445;SDS011;4761;49.490;10.908;2022-11-14T13:19:58;3.97;;;3.00;;
9445;SDS011;4761;49.490;10.908;2022-11-14T13:22:44;3.97;;;2.67;;
9445;SDS011;4761;49.490;10.908;2022-11-14T13:25:14;2.60;;;2.40;;
9445;SDS011;4761;49.490;10.908;2022-11-14T13:27:45;3.10;;;2.60;;
9445;SDS011;4761;49.490;10.908;2022-11-14T13:30:11;3.50;;;2.63;;
9445;SDS011;4761;49.490;10.908;2022-11-14T13:35:51;2.30;;;2.10;;
9445;SDS011;4761;49.490;10.908;2022-11-14T13:52:20;1.90;;;1.80;;
9445;SDS011;4761;49.490;10.908;2022-11-14T13:54:47;2.40;;;2.17;;
9445;SDS011;4761;49.490;10.908;2022-11-14T14:05:11;3.63;;;1.90;;
9445;SDS011;4761;49.490;10.908;2022-11-14T14:08:19;2.60;;;2.03;;
9445;SDS011;4761;49.490;10.908;2022-11-14T14:11:25;1.87;;;1.53;;
9445;SDS011;4761;49.490;10.908;2022-11-14T14:14:15;2.23;;;1.80;;
9445;SDS011;4761;49.490;10.908;2022-11-14T14:16:52;1.80;;;1.70;;
9445;SDS011;4761;49.490;10.908;2022-11-14T14:19:30;2.83;;;1.83;;
9445;SDS011;4761;49.490;10.908;2022-11-14T14:22:03;1.90;;;1.70;;
9445;SDS011;4761;49.490;10.908;2022-11-14T14:27:05;1.70;;;1.53;;
9445;SDS011;4761;49.490;10.908;2022-11-14T14:32:40;2.27;;;2.00;;
9445;SDS011;4761;49.490;10.908;2022-11-14T14:38:20;2.77;;;1.60;;
9445;SDS011;4761;49.490;10.908;2022-11-14T14:40:47;3.97;;;2.20;;
9445;SDS011;4761;49.490;10.908;2022-11-14T14:43:20;4.80;;;2.00;;
9445;SDS011;4761;49.490;10.908;2022-11-14T14:45:57;4.73;;;2.10;;
9445;SDS011;4761;49.490;10.908;2022-11-14T14:48:27;4.60;;;2.60;;
9445;SDS011;4761;49.490;10.908;2022-11-14T14:50:56;2.97;;;2.30;;
9445;SDS011;4761;49.490;10.908;2022-11-14T14:53:25;2.97;;;2.10;;
9445;SDS011;4761;49.490;10.908;2022-11-14T14:58:26;3.83;;;2.80;;
9445;SDS011;4761;49.490;10.908;2022-11-14T15:03:31;4.63;;;2.63;;
9445;SDS011;4761;49.490;10.908;2022-11-14T15:06:03;4.27;;;2.80;;
9445;SDS011;4761;49.490;10.908;2022-11-14T15:08:33;5.13;;;2.93;;
9445;SDS011;4761;49.490;10.908;2022-11-14T15:11:01;5.47;;;2.87;;
9445;SDS011;4761;49.490;10.908;2022-11-14T15:13:28;5.67;;;2.83;;
9445;SDS011;4761;49.490;10.908;2022-11-14T15:15:55;5.57;;;2.90;;
9445;SDS011;4761;49.490;10.908;2022-11-14T15:18:23;4.10;;;2.70;;
9445;SDS011;4761;49.490;10.908;2022-11-14T15:21:12;4.40;;;2.73;;
9445;SDS011;4761;49.490;10.908;2022-11-14T15:26:47;3.60;;;2.50;;
9445;SDS011;4761;49.490;10.908;2022-11-14T15:29:18;3.33;;;2.47;;
9445;SDS011;4761;49.490;10.908;2022-11-14T15:31:49;4.27;;;2.33;;
9445;SDS011;4761;49.490;10.908;2022-11-14T15:34:36;3.87;;;2.43;;
9445;SDS011;4761;49.490;10.908;2022-11-14T15:37:06;3.33;;;2.40;;
9445;SDS011;4761;49.490;10.908;2022-11-14T15:39:37;2.17;;;1.97;;
9445;SDS011;4761;49.490;10.908;2022-11-14T15:42:12;5.40;;;2.20;;
9445;SDS011;4761;49.490;10.908;2022-11-14T15:44:45;3.07;;;2.10;;
9445;SDS011;4761;49.490;10.908;2022-11-14T15:50:03;3.03;;;2.30;;
9445;SDS011;4761;49.490;10.908;2022-11-14T15:52:46;2.83;;;2.10;;
9445;SDS011;4761;49.490;10.908;2022-11-14T15:55:14;2.97;;;2.47;;
9445;SDS011;4761;49.490;10.908;2022-11-14T15:57:44;2.63;;;2.30;;
9445;SDS011;4761;49.490;10.908;2022-11-14T16:00:13;2.40;;;2.20;;
9445;SDS011;4761;49.490;10.908;2022-11-14T16:02:41;3.03;;;1.90;;
9445;SDS011;4761;49.490;10.908;2022-11-14T16:05:15;10.23;;;3.73;;
9445;SDS011;4761;49.490;10.908;2022-11-14T16:07:43;10.67;;;3.40;;
9445;SDS011;4761;49.490;10.908;2022-11-14T16:10:12;7.70;;;3.30;;
9445;SDS011;4761;49.490;10.908;2022-11-14T16:12:48;11.47;;;3.10;;
9445;SDS011;4761;49.490;10.908;2022-11-14T16:15:14;11.70;;;2.83;;
9445;SDS011;4761;49.490;10.908;2022-11-14T16:17:41;5.10;;;3.07;;
9445;SDS011;4761;49.490;10.908;2022-11-14T16:20:30;7.80;;;3.67;;
9445;SDS011;4761;49.490;10.908;2022-11-14T16:22:56;7.10;;;4.07;;
9445;SDS011;4761;49.490;10.908;2022-11-14T16:25:22;7.43;;;3.87;;
9445;SDS011;4761;49.490;10.908;2022-11-14T16:27:49;5.57;;;3.43;;
9445;SDS011;4761;49.490;10.908;2022-11-14T16:30:16;5.37;;;3.50;;
9445;SDS011;4761;49.490;10.908;2022-11-14T16:32:43;4.93;;;3.43;;
9445;SDS011;4761;49.490;10.908;2022-11-14T16:35:14;5.33;;;2.97;;
9445;SDS011;4761;49.490;10.908;2022-11-14T16:37:41;4.77;;;3.10;;
9445;SDS011;4761;49.490;10.908;2022-11-14T16:40:11;4.70;;;3.07;;
9445;SDS011;4761;49.490;10.908;2022-11-14T16:42:48;4.50;;;2.73;;
9445;SDS011;4761;49.490;10.908;2022-11-14T16:45:14;3.97;;;3.00;;
9445;SDS011;4761;49.490;10.908;2022-11-14T16:47:40;3.83;;;3.10;;
9445;SDS011;4761;49.490;10.908;2022-11-14T16:50:06;5.43;;;2.83;;
9445;SDS011;4761;49.490;10.908;2022-11-14T16:52:32;4.23;;;2.70;;
9445;SDS011;4761;49.490;10.908;2022-11-14T16:54:58;3.73;;;2.77;;
9445;SDS011;4761;49.490;10.908;2022-11-14T16:57:23;3.33;;;3.00;;
9445;SDS011;4761;49.490;10.908;2022-11-14T16:59:49;5.40;;;2.80;;
9445;SDS011;4761;49.490;10.908;2022-11-14T17:02:18;3.40;;;2.73;;
9445;SDS011;4761;49.490;10.908;2022-11-14T17:04:43;5.57;;;2.43;;
9445;SDS011;4761;49.490;10.908;2022-11-14T17:07:10;3.50;;;2.50;;
9445;SDS011;4761;49.490;10.908;2022-11-14T17:09:36;3.07;;;2.60;;
9445;SDS011;4761;49.490;10.908;2022-11-14T17:12:02;2.50;;;2.13;;
9445;SDS011;4761;49.490;10.908;2022-11-14T17:14:28;2.50;;;2.30;;